Time;durP1;ratioP1;P1;durP2;ratioP2;P2;SDS_P1;SDS_P2;PMS_P1;PMS_P2;Temp;Humidity;BMP_temperature;BMP_pressure;BME280_temperature;BME280_humidity;BME280_pressure;Samples;Min_cycle;Max_cycle;Signal;HPM_P1;HPM_P2
2022/05/12 00:02:15;;;;;;;;;;;;;;;24.54;24.31;98889.34;5138228;27;20014;-77
2022/05/12 00:04:40;;;;;;;;;;;;;;;24.55;24.10;98873.75;5137644;27;19953;-74
2022/05/12 00:07:05;;;;;;;;;;;;;;;24.54;24.44;98883.91;5137996;27;19919;-75
2022/05/12 00:09:31;;;;;;;;;;;;;;;24.54;24.22;98886.63;5137706;27;20326;-74
2022/05/12 00:11:56;;;;;;;;;;;;;;;24.54;24.47;98864.78;5137577;27;19915;-74
2022/05/12 00:14:22;;;;;;;;;;;;;;;24.53;24.30;98862.34;5137647;27;19916;-76
2022/05/12 00:16:47;;;;;;;;;;;;;;;24.53;24.42;98860.41;5137935;27;19915;-73
2022/05/12 00:19:12;;;;;;;;;;;;;;;24.53;24.21;98860.41;5137918;27;20319;-75
2022/05/12 00:21:37;;;;;;;;;;;;;;;24.54;24.28;98856.59;5137566;27;20366;-76
2022/05/12 00:24:03;;;;;;;;;;;;;;;24.53;24.35;98840.47;5137426;27;19923;-75
2022/05/12 00:26:29;;;;;;;;;;;;;;;24.53;24.20;98854.94;5137278;27;20030;-76
2022/05/12 00:28:55;;;;;;;;;;;;;;;24.54;24.28;98844.84;5137727;27;19988;-74
2022/05/12 00:31:21;;;;;;;;;;;;;;;24.53;24.38;98849.47;5137270;27;19969;-74
2022/05/12 00:33:46;;;;;;;;;;;;;;;24.52;24.31;98845.13;5137621;27;19919;-74
2022/05/12 00:36:11;;;;;;;;;;;;;;;24.51;24.44;98827.16;5137514;27;19915;-73
2022/05/12 00:38:37;;;;;;;;;;;;;;;24.51;24.11;98832.59;5137445;27;19973;-75
2022/05/12 00:41:02;;;;;;;;;;;;;;;24.51;24.38;98829.09;5137408;27;19926;-75
2022/05/12 00:43:33;;;;;;;;;;;;;;;24.50;24.21;98817.34;5137728;27;20312;-74
2022/05/12 00:45:58;;;;;;;;;;;;;;;24.50;24.31;98813.81;5137445;27;19924;-76
2022/05/12 00:48:24;;;;;;;;;;;;;;;24.49;24.23;98818.47;5137319;27;20418;-73
2022/05/12 00:50:49;;;;;;;;;;;;;;;24.50;24.08;98814.59;5136912;27;19927;-76
2022/05/12 00:53:14;;;;;;;;;;;;;;;24.50;24.31;98809.13;5136841;27;19916;-76
2022/05/12 00:55:40;;;;;;;;;;;;;;;24.49;24.38;98799.34;5137692;27;19958;-73
2022/05/12 00:58:06;;;;;;;;;;;;;;;24.49;24.35;98796.63;5136893;27;20426;-75
2022/05/12 01:00:31;;;;;;;;;;;;;;;24.48;24.42;98795.00;5137000;27;20266;-77
2022/05/12 01:02:57;;;;;;;;;;;;;;;24.48;24.33;98794.22;5136958;27;20421;-75
2022/05/12 01:05:22;;;;;;;;;;;;;;;24.48;24.38;98789.53;5118352;27;19922;-75
2022/05/12 01:07:48;;;;;;;;;;;;;;;24.48;24.27;98786.81;5118624;27;19919;-72
2022/05/12 01:10:13;;;;;;;;;;;;;;;24.48;24.34;98786.81;5136585;27;20381;-75
2022/05/12 01:12:39;;;;;;;;;;;;;;;24.48;24.38;98781.34;5119056;27;19919;-74
2022/05/12 01:15:05;;;;;;;;;;;;;;;24.48;24.12;98770.44;5118048;27;20326;-74
2022/05/12 01:17:30;;;;;;;;;;;;;;;24.47;24.38;98777.00;5136299;27;19915;-76
2022/05/12 01:19:55;;;;;;;;;;;;;;;24.47;24.10;98766.09;5136758;27;19916;-75
2022/05/12 01:22:26;;;;;;;;;;;;;;;24.47;24.42;98757.88;5136771;27;20384;-76
2022/05/12 01:24:52;;;;;;;;;;;;;;;24.48;24.40;98751.31;5136230;27;19916;-74
2022/05/12 01:27:20;;;;;;;;;;;;;;;24.46;24.11;98745.38;5136069;27;19927;-74
2022/05/12 01:29:55;;;;;;;;;;;;;;;24.47;24.21;98746.97;5136542;27;19949;-76
2022/05/12 01:32:21;;;;;;;;;;;;;;;24.46;24.39;98747.31;5136226;27;19926;-75
2022/05/12 01:34:47;;;;;;;;;;;;;;;24.46;24.12;98748.13;5136596;27;19915;-75
2022/05/12 01:37:12;;;;;;;;;;;;;;;24.46;24.30;98755.50;5136426;27;20348;-76
2022/05/12 01:39:37;;;;;;;;;;;;;;;24.46;24.49;98753.56;5136131;27;19915;-74
2022/05/12 01:42:03;;;;;;;;;;;;;;;24.46;24.46;98747.31;5136352;27;19915;-75
2022/05/12 01:44:28;;;;;;;;;;;;;;;24.46;24.43;98748.13;5136364;27;19919;-75
2022/05/12 01:46:54;;;;;;;;;;;;;;;24.46;24.40;98742.66;5136440;27;19919;-75
2022/05/12 01:49:19;;;;;;;;;;;;;;;24.46;24.17;98745.38;5135932;27;20006;-77
2022/05/12 01:51:45;;;;;;;;;;;;;;;24.45;24.17;98730.09;5136292;27;19922;-74
2022/05/12 01:54:10;;;;;;;;;;;;;;;24.45;24.36;98735.56;5135816;27;20030;-76
2022/05/12 01:56:35;;;;;;;;;;;;;;;24.45;24.41;98724.66;5136141;27;19915;-74
2022/05/12 01:59:00;;;;;;;;;;;;;;;24.45;24.41;98719.19;5135780;27;20413;-75
2022/05/12 02:01:26;;;;;;;;;;;;;;;24.44;24.31;98703.13;5136116;27;19916;-77
2022/05/12 02:03:51;;;;;;;;;;;;;;;24.44;24.20;98712.13;5135673;27;19934;-74
2022/05/12 02:06:16;;;;;;;;;;;;;;;24.44;24.39;98706.69;5135662;27;19915;-76
2022/05/12 02:08:41;;;;;;;;;;;;;;;24.44;24.28;98706.69;5136229;27;19928;-75
2022/05/12 02:11:07;;;;;;;;;;;;;;;24.44;24.48;98706.69;5135503;27;20392;-76
2022/05/12 02:13:32;;;;;;;;;;;;;;;24.43;24.41;98699.59;5117513;27;19919;-75
2022/05/12 02:15:57;;;;;;;;;;;;;;;24.44;24.41;98703.13;5136033;27;19915;-75
2022/05/12 02:18:23;;;;;;;;;;;;;;;24.43;24.44;98699.59;5135360;27;19920;-75
2022/05/12 02:20:48;;;;;;;;;;;;;;;24.44;24.59;98690.28;5135494;27;20289;-74
2022/05/12 02:23:14;;;;;;;;;;;;;;;24.43;24.51;98688.69;5135372;27;20014;-74
2022/05/12 02:25:39;;;;;;;;;;;;;;;24.43;24.53;98688.69;5135536;27;19929;-75
2022/05/12 02:28:04;;;;;;;;;;;;;;;24.42;24.63;98687.06;5135701;27;20418;-76
2022/05/12 02:30:30;;;;;;;;;;;;;;;24.42;24.66;98686.25;5135773;27;19998;-74
2022/05/12 02:32:55;;;;;;;;;;;;;;;24.42;24.65;98681.59;5135289;27;20421;-75
2022/05/12 02:35:20;;;;;;;;;;;;;;;24.42;24.53;98687.06;5135444;27;20408;-77
2022/05/12 02:37:46;;;;;;;;;;;;;;;24.42;24.70;98684.31;5136190;27;19939;-75
2022/05/12 02:40:12;;;;;;;;;;;;;;;24.42;24.75;98687.06;5135371;27;19938;-75
2022/05/12 02:42:37;;;;;;;;;;;;;;;24.42;24.74;98683.53;5135059;27;20365;-74
2022/05/12 02:45:04;;;;;;;;;;;;;;;24.42;24.58;98672.63;5135135;27;19916;-75
2022/05/12 02:47:29;;;;;;;;;;;;;;;24.41;24.73;98673.75;5135399;27;19997;-73
2022/05/12 02:49:54;;;;;;;;;;;;;;;24.40;24.69;98667.47;5135396;27;20342;-74
2022/05/12 02:52:19;;;;;;;;;;;;;;;24.40;24.73;98653.81;5135116;27;19916;-76
2022/05/12 02:54:45;;;;;;;;;;;;;;;24.42;24.75;98646.09;5135205;27;20357;-74
2022/05/12 02:57:10;;;;;;;;;;;;;;;24.40;24.87;98642.91;5135131;27;20342;-74
2022/05/12 02:59:37;;;;;;;;;;;;;;;24.41;24.88;98639.06;5135258;27;19916;-76
2022/05/12 03:02:02;;;;;;;;;;;;;;;24.42;24.86;98632.44;5135253;27;19915;-74
2022/05/12 03:04:28;;;;;;;;;;;;;;;24.45;24.72;98634.53;5134628;27;19916;-77
2022/05/12 03:06:53;;;;;;;;;;;;;;;24.48;24.57;98642.09;5134805;27;19923;-73
2022/05/12 03:09:18;;;;;;;;;;;;;;;24.50;24.83;98639.03;5134637;27;19923;-75
2022/05/12 03:11:43;;;;;;;;;;;;;;;24.52;24.63;98640.31;5134734;27;19923;-74
2022/05/12 03:14:09;;;;;;;;;;;;;;;24.55;24.74;98636.97;5134763;27;20455;-74
2022/05/12 03:16:34;;;;;;;;;;;;;;;24.57;24.76;98627.66;5134767;28;19923;-74
2022/05/12 03:18:59;;;;;;;;;;;;;;;24.59;24.45;98614.50;5134388;28;19916;-74
2022/05/12 03:21:26;;;;;;;;;;;;;;;24.60;24.36;98624.28;5134514;27;19922;-76
2022/05/12 03:23:51;;;;;;;;;;;;;;;24.65;24.45;98624.13;5139219;27;19953;-72
2022/05/12 03:26:16;;;;;;;;;;;;;;;24.70;24.71;98630.22;5138588;27;19968;-75
2022/05/12 03:28:42;;;;;;;;;;;;;;;24.72;24.43;98614.28;5138585;27;19923;-73
2022/05/12 03:31:10;;;;;;;;;;;;;;;24.78;24.47;98616.84;5138450;27;19920;-75
2022/05/12 03:33:35;;;;;;;;;;;;;;;24.79;24.55;98622.00;5138543;27;19919;-76
2022/05/12 03:36:01;;;;;;;;;;;;;;;24.82;24.62;98606.88;5138742;27;19941;-73
2022/05/12 03:38:26;;;;;;;;;;;;;;;24.85;24.21;98600.75;5138479;27;20365;-74
2022/05/12 03:40:52;;;;;;;;;;;;;;;24.85;24.64;98601.59;5138556;27;20006;-77
2022/05/12 03:46:01;;;;;;;;;;;;;;;24.94;24.50;98609.75;5138344;27;19938;-75
2022/05/12 03:48:26;;;;;;;;;;;;;;;24.97;24.23;98602.81;5138253;27;20358;-75
2022/05/12 03:50:51;;;;;;;;;;;;;;;25.00;24.34;98602.16;5138508;27;19919;-75
2022/05/12 03:53:17;;;;;;;;;;;;;;;25.01;24.22;98609.22;5138331;27;19916;-75
2022/05/12 03:55:42;;;;;;;;;;;;;;;25.04;24.45;98603.94;5138287;27;20018;-74
2022/05/12 03:58:08;;;;;;;;;;;;;;;25.05;24.19;98594.59;5138184;27;19915;-75
2022/05/12 04:00:34;;;;;;;;;;;;;;;25.07;24.04;98602.47;5138161;27;20349;-74
2022/05/12 04:02:59;;;;;;;;;;;;;;;25.08;24.12;98593.16;5138499;27;20006;-74
2022/05/12 04:05:26;;;;;;;;;;;;;;;25.09;24.28;98589.25;5138237;27;20034;-73
2022/05/12 04:07:51;;;;;;;;;;;;;;;25.12;24.29;98583.16;5138592;27;19966;-73
2022/05/12 04:10:16;;;;;;;;;;;;;;;25.17;24.37;98585.69;5138339;27;20324;-75
2022/05/12 04:12:41;;;;;;;;;;;;;;;25.14;24.13;98582.81;5137834;27;19920;-75
2022/05/12 04:15:08;;;;;;;;;;;;;;;25.18;23.96;98587.31;5138074;27;20265;-74
2022/05/12 04:17:33;;;;;;;;;;;;;;;25.17;24.08;98579.44;5137894;27;19916;-76
2022/05/12 04:20:06;;;;;;;;;;;;;;;25.19;24.09;98579.91;5137694;27;19926;-75
2022/05/12 04:22:32;;;;;;;;;;;;;;;25.19;23.97;98572.50;5119530;27;19923;-75
2022/05/12 04:24:57;;;;;;;;;;;;;;;25.21;23.97;98569.44;5137581;27;19919;-75
2022/05/12 04:27:23;;;;;;;;;;;;;;;25.21;24.03;98566.72;5137824;27;20361;-76
2022/05/12 04:29:48;;;;;;;;;;;;;;;25.24;24.30;98572.31;5137455;27;19942;-73
2022/05/12 04:32:13;;;;;;;;;;;;;;;25.27;23.93;98559.97;5137254;27;19916;-75
2022/05/12 04:37:29;;;;;;;;;;;;;;;25.31;24.07;98566.38;5137275;27;20352;-77
2022/05/12 04:39:54;;;;;;;;;;;;;;;25.34;24.09;98557.50;5137148;27;20014;-76
2022/05/12 04:42:20;;;;;;;;;;;;;;;25.36;23.99;98554.44;5137329;27;19956;-74
2022/05/12 04:44:45;;;;;;;;;;;;;;;25.41;23.87;98554.25;5136930;27;19916;-75
2022/05/12 04:47:10;;;;;;;;;;;;;;;25.40;24.22;98555.38;5137329;27;20010;-74
2022/05/12 04:49:35;;;;;;;;;;;;;;;25.41;23.88;98551.53;5137852;27;20002;-76
2022/05/12 04:52:02;;;;;;;;;;;;;;;25.40;24.21;98544.44;5137740;27;20403;-76
2022/05/12 04:54:28;;;;;;;;;;;;;;;25.38;24.12;98549.44;5137580;27;19988;-76
2022/05/12 04:56:53;;;;;;;;;;;;;;;25.41;24.20;98546.06;5119113;27;19915;-75
2022/05/12 04:59:18;;;;;;;;;;;;;;;25.46;24.06;98543.91;5138488;27;19920;-76
2022/05/12 05:01:44;;;;;;;;;;;;;;;25.45;24.22;98546.97;5138869;27;19961;-77
2022/05/12 05:04:10;;;;;;;;;;;;;;;25.48;24.02;98543.59;5137602;27;19919;-75
2022/05/12 05:06:36;;;;;;;;;;;;;;;25.50;24.13;98533.13;5138705;27;19922;-75
2022/05/12 05:09:01;;;;;;;;;;;;;;;25.49;24.19;98539.69;5139497;27;20319;-77
2022/05/12 05:11:27;;;;;;;;;;;;;;;25.49;24.00;98536.97;5139145;27;19927;-77
2022/05/12 05:13:53;;;;;;;;;;;;;;;25.50;24.22;98530.38;5139684;27;20297;-75
2022/05/12 05:16:18;;;;;;;;;;;;;;;25.54;24.24;98527.78;5139036;27;19958;-77
2022/05/12 05:18:43;;;;;;;;;;;;;;;25.55;24.06;98529.38;5138791;27;19922;-78
2022/05/12 05:21:10;;;;;;;;;;;;;;;25.54;23.94;98520.38;5137742;27;19919;-75
2022/05/12 05:23:35;;;;;;;;;;;;;;;25.57;24.32;98522.44;5137008;27;19922;-75
2022/05/12 05:26:01;;;;;;;;;;;;;;;25.55;24.21;98519.25;5136874;27;20284;-76
2022/05/12 05:28:26;;;;;;;;;;;;;;;25.62;24.01;98515.97;5136995;27;19943;-76
2022/05/12 05:30:51;;;;;;;;;;;;;;;25.59;24.67;98514.69;5136877;27;20403;-76
2022/05/12 05:33:18;;;;;;;;;;;;;;;25.64;24.58;98516.44;5138214;27;19916;-75
2022/05/12 05:35:43;;;;;;;;;;;;;;;25.66;24.37;98504.03;5137190;27;19916;-75
2022/05/12 05:38:08;;;;;;;;;;;;;;;25.65;24.51;98501.66;5136807;27;19964;-75
2022/05/12 05:40:34;;;;;;;;;;;;;;;25.70;24.58;98503.34;5137222;27;20302;-77
2022/05/12 05:42:59;;;;;;;;;;;;;;;25.39;24.91;98510.00;5136680;27;19919;-76
2022/05/12 05:45:24;;;;;;;;;;;;;;;25.63;24.47;98499.25;5138629;27;19922;-75
2022/05/12 05:47:51;;;;;;;;;;;;;;;25.65;24.69;98501.66;5138783;27;19947;-75
2022/05/12 05:50:17;;;;;;;;;;;;;;;25.67;24.56;98496.63;5136743;27;20002;-78
2022/05/12 05:55:26;;;;;;;;;;;;;;;25.63;24.93;98482.81;5137710;27;19938;-74
2022/05/12 05:57:51;;;;;;;;;;;;;;;25.68;24.62;98479.88;5136988;27;20307;-74
2022/05/12 06:00:17;;;;;;;;;;;;;;;25.71;24.78;98486.59;5135773;27;19937;-74
2022/05/12 06:02:42;;;;;;;;;;;;;;;25.70;24.59;98485.03;5135951;27;19915;-77
2022/05/12 06:05:08;;;;;;;;;;;;;;;25.74;24.76;98487.88;5135395;27;19954;-74
2022/05/12 06:07:36;;;;;;;;;;;;;;;25.81;24.61;98493.63;5136333;27;19923;-75
2022/05/12 06:10:02;;;;;;;;;;;;;;;25.85;24.81;98494.53;5140100;27;19935;-77
2022/05/12 06:12:29;;;;;;;;;;;;;;;25.86;24.68;98498.88;5137010;27;20245;-78
2022/05/12 06:14:56;;;;;;;;;;;;;;;25.90;24.50;98499.00;5137376;27;19916;-75
2022/05/12 06:17:21;;;;;;;;;;;;;;;25.91;24.53;98481.47;5136800;27;19998;-77
2022/05/12 06:19:48;;;;;;;;;;;;;;;25.90;24.21;98485.34;5137079;27;19963;-77
2022/05/12 06:22:13;;;;;;;;;;;;;;;25.89;24.21;98489.19;5136835;27;20000;-79
2022/05/12 06:24:38;;;;;;;;;;;;;;;25.93;24.13;98495.63;5136175;27;19977;-76
2022/05/12 06:27:04;;;;;;;;;;;;;;;25.93;24.41;98488.19;5135391;27;19920;-75
2022/05/12 06:29:30;;;;;;;;;;;;;;;25.96;24.12;98493.03;5135167;27;20369;-75
2022/05/12 06:31:55;;;;;;;;;;;;;;;25.93;24.31;98485.47;5135337;27;20006;-75
2022/05/12 06:34:21;;;;;;;;;;;;;;;25.74;24.33;98479.69;5135424;27;20362;-76
2022/05/12 06:36:46;;;;;;;;;;;;;;;25.89;24.01;98476.34;5135495;27;19965;-77
2022/05/12 06:39:11;;;;;;;;;;;;;;;25.90;24.03;98486.13;5135741;27;19915;-77
2022/05/12 06:41:36;;;;;;;;;;;;;;;25.89;24.19;98489.19;5134892;27;19924;-76
2022/05/12 06:44:02;;;;;;;;;;;;;;;25.98;24.04;98493.50;5135384;27;19922;-77
2022/05/12 06:46:28;;;;;;;;;;;;;;;25.98;24.00;98479.81;5135373;27;19917;-78
2022/05/12 06:48:54;;;;;;;;;;;;;;;25.96;24.35;98490.28;5135249;27;20006;-77
2022/05/12 06:51:19;;;;;;;;;;;;;;;25.95;24.50;98487.88;5135377;27;19992;-76
2022/05/12 06:53:45;;;;;;;;;;;;;;;25.97;24.26;98491.88;5135299;27;19915;-78
2022/05/12 06:56:10;;;;;;;;;;;;;;;25.91;24.29;98490.47;5135884;27;20081;-77
2022/05/12 06:58:36;;;;;;;;;;;;;;;26.04;24.18;98492.16;5134314;27;19915;-79
2022/05/12 07:01:01;;;;;;;;;;;;;;;26.03;24.44;98487.81;5135570;27;19954;-75
2022/05/12 07:03:27;;;;;;;;;;;;;;;26.07;23.83;98490.66;5115905;28;20119;-76
2022/05/12 07:05:52;;;;;;;;;;;;;;;26.08;23.98;98488.72;5134615;27;19942;-76
2022/05/12 07:08:18;;;;;;;;;;;;;;;26.05;24.10;98490.22;5134287;27;20385;-77
2022/05/12 07:10:43;;;;;;;;;;;;;;;26.04;24.10;98488.59;5134008;27;19915;-75
2022/05/12 07:13:08;;;;;;;;;;;;;;;26.02;23.97;98483.47;5134615;27;20044;-74
2022/05/12 07:15:33;;;;;;;;;;;;;;;26.09;23.85;98473.91;5134580;27;20273;-76
2022/05/12 07:17:59;;;;;;;;;;;;;;;26.02;23.79;98467.03;5134244;28;20302;-77
2022/05/12 07:28:36;;;;;;;;;;;;;;;26.15;23.81;98461.63;5134997;28;20250;-76
2022/05/12 07:31:02;;;;;;;;;;;;;;;26.11;23.59;98466.16;5134441;28;19916;-75
2022/05/12 07:33:27;;;;;;;;;;;;;;;26.14;23.58;98470.97;5135227;28;20284;-76
2022/05/12 07:35:53;;;;;;;;;;;;;;;26.12;23.56;98465.81;5135340;28;19916;-75
2022/05/12 07:38:18;;;;;;;;;;;;;;;26.20;23.46;98461.41;5134199;28;19916;-77
2022/05/12 07:40:43;;;;;;;;;;;;;;;26.16;23.56;98455.78;5134700;28;19916;-75
2022/05/12 07:43:08;;;;;;;;;;;;;;;26.24;23.63;98452.16;5134419;28;19919;-74
2022/05/12 07:45:37;;;;;;;;;;;;;;;26.28;23.29;98443.28;5134441;28;19915;-75
2022/05/12 07:48:02;;;;;;;;;;;;;;;26.27;23.34;98461.66;5134894;28;19919;-77
2022/05/12 07:50:28;;;;;;;;;;;;;;;26.31;23.37;98451.59;5134683;28;20437;-78
2022/05/12 07:52:54;;;;;;;;;;;;;;;26.25;23.35;98436.56;5134435;28;19915;-73
2022/05/12 07:55:19;;;;;;;;;;;;;;;26.29;23.20;98437.47;5134083;28;19923;-75
2022/05/12 07:57:44;;;;;;;;;;;;;;;26.23;23.53;98442.38;5134230;28;20365;-76
2022/05/12 08:00:10;;;;;;;;;;;;;;;26.26;23.52;98431.88;5135837;28;20068;-77
2022/05/12 08:02:35;;;;;;;;;;;;;;;26.26;23.46;98431.88;5134476;28;19923;-77
2022/05/12 08:05:01;;;;;;;;;;;;;;;26.32;23.39;98431.31;5115455;28;19990;-77
2022/05/12 08:07:26;;;;;;;;;;;;;;;26.33;23.45;98427.41;5134404;27;19924;-74
2022/05/12 08:09:51;;;;;;;;;;;;;;;26.36;23.27;98426.75;5119084;27;19915;-76
2022/05/12 08:12:17;;;;;;;;;;;;;;;26.34;23.37;98417.28;5137643;27;19922;-77
2022/05/12 08:14:42;;;;;;;;;;;;;;;26.36;23.02;98417.72;5137629;27;19969;-78
2022/05/12 08:17:09;;;;;;;;;;;;;;;26.36;23.05;98421.25;5138082;27;19915;-75
2022/05/12 08:19:34;;;;;;;;;;;;;;;26.37;23.09;98431.09;5138627;27;19915;-75
2022/05/12 08:22:00;;;;;;;;;;;;;;;26.38;22.88;98434.63;5138420;27;19919;-74
2022/05/12 08:24:25;;;;;;;;;;;;;;;26.40;22.94;98437.81;5137570;27;20006;-76
2022/05/12 08:26:50;;;;;;;;;;;;;;;26.37;22.95;98430.28;5137355;27;20284;-77
2022/05/12 08:29:15;;;;;;;;;;;;;;;26.48;22.76;98433.38;5137920;27;19923;-77
2022/05/12 08:31:40;;;;;;;;;;;;;;;26.48;22.89;98422.44;5137268;27;19923;-74
2022/05/12 08:34:06;;;;;;;;;;;;;;;26.45;22.68;98423.09;5137619;27;19915;-75
2022/05/12 08:36:31;;;;;;;;;;;;;;;26.40;22.65;98430.38;5138104;27;19999;-75
2022/05/12 08:38:56;;;;;;;;;;;;;;;26.45;22.79;98421.16;5137480;27;19927;-76
2022/05/12 08:41:25;;;;;;;;;;;;;;;26.48;22.76;98423.22;5137909;27;20354;-77
2022/05/12 08:43:54;;;;;;;;;;;;;;;26.49;22.57;98426.75;5119278;27;19916;-75
2022/05/12 08:46:21;;;;;;;;;;;;;;;26.45;22.64;98423.09;5139815;27;19915;-75
2022/05/12 08:48:46;;;;;;;;;;;;;;;26.48;22.40;98423.22;5138028;27;19919;-74
2022/05/12 08:51:16;;;;;;;;;;;;;;;26.49;22.57;98426.75;5137490;27;19916;-76
2022/05/12 08:54:08;;;;;;;;;;;;;;;26.51;22.78;98438.16;5119092;27;20273;-76
2022/05/12 08:56:35;;;;;;;;;;;;;;;26.50;22.58;98425.63;5132997;27;20368;-73
2022/05/12 08:59:00;;;;;;;;;;;;;;;26.53;22.64;98424.94;5136918;27;19959;-75
2022/05/12 09:01:40;;;;;;;;;;;;;;;26.54;22.54;98418.31;5136698;27;19922;-74
2022/05/12 09:04:24;;;;;;;;;;;;;;;26.47;22.49;98418.09;5137017;27;19922;-75
2022/05/12 09:06:52;;;;;;;;;;;;;;;26.48;22.65;98417.75;5133765;27;19931;-73
2022/05/12 09:09:18;;;;;;;;;;;;;;;26.43;22.57;98420.72;5132029;27;20009;-75
2022/05/12 09:11:48;;;;;;;;;;;;;;;26.51;22.34;98417.06;5136400;27;19998;-74
2022/05/12 09:14:17;;;;;;;;;;;;;;;26.49;22.41;98407.56;5136482;27;20025;-73
2022/05/12 09:16:43;;;;;;;;;;;;;;;26.53;22.28;98403.81;5118243;27;19915;-75
2022/05/12 09:19:09;;;;;;;;;;;;;;;26.54;22.22;98407.34;5117694;27;19968;-76
2022/05/12 09:21:35;;;;;;;;;;;;;;;26.52;22.28;98395.94;5117889;27;19915;-74
2022/05/12 09:24:00;;;;;;;;;;;;;;;26.51;22.13;98400.63;5136222;27;20010;-74
2022/05/12 09:26:28;;;;;;;;;;;;;;;26.53;22.25;98392.06;5136021;27;20068;-73
2022/05/12 09:28:54;;;;;;;;;;;;;;;26.52;22.22;98404.16;5136485;27;19963;-74
2022/05/12 09:31:19;;;;;;;;;;;;;;;26.48;22.10;98395.03;5118164;27;19919;-74
2022/05/12 09:33:46;;;;;;;;;;;;;;;26.52;22.30;98387.72;5117690;27;19922;-75
2022/05/12 09:36:23;;;;;;;;;;;;;;;26.53;22.22;98384.66;5136338;27;19923;-78
2022/05/12 09:38:54;;;;;;;;;;;;;;;26.60;21.79;98392.28;5136249;27;19923;-76
2022/05/12 09:41:38;;;;;;;;;;;;;;;26.51;22.11;98384.19;5136202;27;20362;-75
2022/05/12 09:44:15;;;;;;;;;;;;;;;26.55;21.94;98373.34;5136236;27;19923;-75
2022/05/12 09:46:41;;;;;;;;;;;;;;;26.53;22.23;98370.16;5135662;27;19922;-75
2022/05/12 09:49:16;;;;;;;;;;;;;;;26.54;22.12;98374.47;5135909;27;19915;-74
2022/05/12 09:51:41;;;;;;;;;;;;;;;26.54;22.12;98377.22;5136349;27;19916;-75
2022/05/12 09:54:27;;;;;;;;;;;;;;;26.55;22.07;98370.63;5135261;27;20289;-74
2022/05/12 09:56:56;;;;;;;;;;;;;;;26.60;21.96;98373.13;5135505;27;19915;-74
2022/05/12 09:59:23;;;;;;;;;;;;;;;26.57;21.80;98365.59;5135052;27;19915;-73
2022/05/12 10:01:58;;;;;;;;;;;;;;;26.55;21.82;98368.66;5117113;27;19916;-73
2022/05/12 10:09:56;;;;;;;;;;;;;;;26.55;21.80;98374.13;5135391;27;19934;-76
2022/05/12 10:12:22;;;;;;;;;;;;;;;26.58;21.75;98364.44;5117163;27;19915;-76
2022/05/12 10:14:54;;;;;;;;;;;;;;;26.57;21.74;98360.09;5135221;27;19922;-75
2022/05/12 10:17:27;;;;;;;;;;;;;;;26.56;21.60;98362.06;5135494;27;19934;-76
2022/05/12 10:19:53;;;;;;;;;;;;;;;26.51;21.59;98362.28;5134927;27;19919;-76
2022/05/12 10:22:30;;;;;;;;;;;;;;;26.57;21.74;98358.16;5134952;27;19916;-76
2022/05/12 10:24:59;;;;;;;;;;;;;;;26.46;21.82;98361.69;5135138;27;19915;-76
2022/05/12 10:27:29;;;;;;;;;;;;;;;26.53;21.93;98359.22;5116534;27;19920;-77
2022/05/12 10:30:03;;;;;;;;;;;;;;;26.50;22.05;98359.88;5116804;27;19919;-74
2022/05/12 10:32:57;;;;;;;;;;;;;;;26.50;21.75;98355.19;5134328;27;20373;-77
2022/05/12 10:35:41;;;;;;;;;;;;;;;26.50;21.98;98355.19;5051353;28;19932;-73
2022/05/12 10:38:13;;;;;;;;;;;;;;;26.45;22.06;98360.13;5034872;28;19943;-74
2022/05/12 10:40:39;;;;;;;;;;;;;;;26.48;21.77;98362.97;5034770;28;20381;-74
2022/05/12 10:43:07;;;;;;;;;;;;;;;26.51;21.87;98367.75;5051177;28;19921;-74
2022/05/12 10:45:38;;;;;;;;;;;;;;;26.60;22.06;98359.44;5051320;28;19917;-74
2022/05/12 10:48:04;;;;;;;;;;;;;;;26.63;21.92;98366.16;5051215;28;19924;-74
2022/05/12 10:50:30;;;;;;;;;;;;;;;26.63;21.81;98355.22;5051349;28;19921;-75
2022/05/12 10:53:06;;;;;;;;;;;;;;;26.61;21.75;98352.78;5034846;28;19917;-75
2022/05/12 10:55:39;;;;;;;;;;;;;;;26.59;21.65;98341.38;5035022;28;19916;-75
2022/05/12 10:58:19;;;;;;;;;;;;;;;26.62;21.87;98346.22;5034206;28;20021;-76
2022/05/12 11:01:04;;;;;;;;;;;;;;;26.61;21.42;98334.44;5051338;28;20005;-74
2022/05/12 11:03:32;;;;;;;;;;;;;;;26.61;21.68;98333.59;5051188;28;20342;-72
2022/05/12 11:05:58;;;;;;;;;;;;;;;26.65;21.35;98339.22;5034574;28;19955;-73
2022/05/12 11:08:25;;;;;;;;;;;;;;;26.67;21.85;98337.75;5034345;28;19921;-75
2022/05/12 11:10:51;;;;;;;;;;;;;;;26.64;21.86;98338.44;5060798;27;19956;-74
2022/05/12 11:13:23;;;;;;;;;;;;;;;26.59;21.88;98324.94;5134245;27;19920;-75
2022/05/12 11:15:57;;;;;;;;;;;;;;;26.58;21.83;98317.88;5134262;27;19923;-75
2022/05/12 11:18:27;;;;;;;;;;;;;;;26.58;21.78;98318.69;5135159;27;19961;-74
2022/05/12 11:20:57;;;;;;;;;;;;;;;26.61;21.23;98317.16;5116617;28;19919;-75
2022/05/12 11:23:25;;;;;;;;;;;;;;;26.62;21.59;98313.34;5116006;28;19924;-75
2022/05/12 11:25:53;;;;;;;;;;;;;;;26.65;21.64;98322.78;5134204;28;19926;-74
2022/05/12 11:31:29;;;;;;;;;;;;;;;26.62;21.60;98324.28;5118500;28;20006;-77
2022/05/12 11:34:01;;;;;;;;;;;;;;;26.63;21.65;98325.91;5134382;28;20014;-76
2022/05/12 11:36:37;;;;;;;;;;;;;;;26.63;21.74;98327.81;5115959;28;19929;-75
2022/05/12 11:39:19;;;;;;;;;;;;;;;26.61;21.75;98323.47;5134093;28;19915;-76
2022/05/12 11:41:44;;;;;;;;;;;;;;;26.62;21.60;98329.78;5134281;27;19922;-75
2022/05/12 11:44:26;;;;;;;;;;;;;;;26.61;21.80;98326.22;5136971;27;19915;-75
2022/05/12 11:46:51;;;;;;;;;;;;;;;26.63;21.75;98331.38;5138077;27;20394;-74
2022/05/12 11:49:37;;;;;;;;;;;;;;;26.66;21.40;98335.34;5138293;27;19919;-73
2022/05/12 11:52:21;;;;;;;;;;;;;;;26.85;21.15;98342.97;5137074;27;20374;-73
2022/05/12 11:55:06;;;;;;;;;;;;;;;26.94;21.28;98347.19;5137824;27;19915;-74
2022/05/12 11:57:40;;;;;;;;;;;;;;;27.02;21.28;98348.19;5137175;27;19915;-75
2022/05/12 12:00:10;;;;;;;;;;;;;;;27.07;21.18;98336.97;5119484;27;19915;-76
2022/05/12 12:02:38;;;;;;;;;;;;;;;27.21;21.05;98349.50;5137760;27;20399;-75
2022/05/12 12:05:10;;;;;;;;;;;;;;;27.33;21.03;98344.78;5138272;27;19915;-77
2022/05/12 12:07:38;;;;;;;;;;;;;;;27.34;21.14;98357.34;5138119;27;19923;-77
2022/05/12 12:10:22;;;;;;;;;;;;;;;27.33;21.30;98353.00;5137854;27;19946;-75
2022/05/12 12:12:49;;;;;;;;;;;;;;;27.25;21.33;98350.38;5137570;27;19916;-77
2022/05/12 12:15:20;;;;;;;;;;;;;;;27.27;21.33;98348.09;5137467;27;20343;-75
2022/05/12 12:17:45;;;;;;;;;;;;;;;27.24;21.33;98346.06;5137646;27;19938;-73
2022/05/12 12:20:15;;;;;;;;;;;;;;;27.24;21.17;98348.81;5137889;27;20341;-74
2022/05/12 12:22:41;;;;;;;;;;;;;;;27.23;21.17;98337.03;5119068;27;20329;-74
2022/05/12 12:25:25;;;;;;;;;;;;;;;27.20;21.14;98339.66;5137223;27;19960;-75
2022/05/12 12:27:55;;;;;;;;;;;;;;;27.14;21.01;98339.13;5137619;27;19960;-74
2022/05/12 12:30:38;;;;;;;;;;;;;;;27.14;21.00;98339.91;5137428;27;19920;-73
2022/05/12 12:33:11;;;;;;;;;;;;;;;27.14;20.94;98334.44;5137785;27;20025;-76
2022/05/12 12:35:54;;;;;;;;;;;;;;;27.11;20.78;98329.66;5137625;27;19915;-77
2022/05/12 12:38:38;;;;;;;;;;;;;;;27.07;21.11;98334.22;5118795;27;20006;-74
2022/05/12 12:41:03;;;;;;;;;;;;;;;26.99;21.21;98326.94;5137141;27;19919;-74
2022/05/12 12:43:37;;;;;;;;;;;;;;;26.95;21.08;98342.50;5137416;27;19937;-76
2022/05/12 12:46:09;;;;;;;;;;;;;;;26.96;21.19;98352.31;5137667;27;20365;-75
2022/05/12 12:48:36;;;;;;;;;;;;;;;26.97;21.13;98362.13;5118849;27;19943;-75
2022/05/12 12:51:03;;;;;;;;;;;;;;;26.99;20.93;98368.06;5137030;27;19916;-76
2022/05/12 12:56:32;;;;;;;;;;;;;;;26.98;21.11;98375.47;5137038;27;19927;-74
2022/05/12 12:58:58;;;;;;;;;;;;;;;26.91;21.18;98367.06;5136745;27;19923;-77
2022/05/12 13:01:23;;;;;;;;;;;;;;;26.88;21.42;98369.69;5118396;27;19940;-76
2022/05/12 13:03:52;;;;;;;;;;;;;;;26.87;21.23;98368.91;5136798;27;19919;-75
2022/05/12 13:06:24;;;;;;;;;;;;;;;26.87;21.04;98368.91;5136925;27;19916;-76
2022/05/12 13:08:56;;;;;;;;;;;;;;;26.87;21.22;98373.56;5137442;27;20289;-76
2022/05/12 13:11:21;;;;;;;;;;;;;;;26.86;21.24;98374.72;5136729;27;19922;-76
2022/05/12 13:13:50;;;;;;;;;;;;;;;26.86;20.91;98371.97;5136533;27;19919;-75
2022/05/12 13:16:17;;;;;;;;;;;;;;;26.86;21.22;98371.97;5136462;27;20367;-75
2022/05/12 13:18:46;;;;;;;;;;;;;;;26.84;21.11;98377.81;5119199;27;19968;-75